A- A+ FrançaisEnglishEspañol中国

le plus proche LFBT Tarbes-Lourdes-PyrénéesLFLJ Courchevel LFMD Cannes-Mandelieu LFQC Luneville-Croismare

manche à air

La météo aéronautique pour les pilotes, la préparation du vol avec les METAR (METeorological Aerodrome Report, message d'observation des conditions météorologiques pour l'aviation) et Les TAF (Terminal Aerodrome Forecast : message de prévision à court terme des conditions météorologiques pour l'aviation). Et les autres ressources comme les VAC (Visual Approch Chart) et les NOTAM (Notice To Airman) pour préprer les vols.

Aéroport Fort McMurray (Canada) / OACI CYMM/ IATA YMM

L'altitude de l'aéroport Fort McMurray est de 369 m=1211 ft. Il est situé à proximité de Fort McMurray (Canada). La météo générale à 5 jours est disponible pour Fort McMurray situé à 12.7 km.

METAR de l'aéroport Fort McMurray - CYMM

CYMM 202300Z AUTO 26006KT 9SM BKN027 OVC075 03/M01 A2981 RMK SLP115

Décodage du METAR de l'aéroport Fort McMurray (CA)

METAR émis par CYMM le lundi 21 octobre 2019 à 23:00 heure TU. C'est un METAR généré automatiquement. Attention ce METAR est obsolète car il a été émis il y a 10 heure et 19 minutes.

La visibilité est de 14.5 km=9 sm.

La température est de 3°C=37 °F et le point rosée est de -1°C=30 °F . Ce qui correspond à 75% d'humidité relative.

Le QNH est de 1009 hPa=29.8 inHg

Vent de 6 kt=11 km/h, orienté à 260°.

Nuages : Couverture nuageuse fragmentée à 2700 ft=820 mètres. Couverture nuageuse soudée à 7500 ft=2290 mètres.

RMK SLP115

TAF de l'aéroport Fort McMurray - CYMM

CYMM 201838Z 2019/2107 27005KT P6SM BKN030 OVC060 TEMPO 2019/2107 4SM -SN BKN015 OVC030 RMK FCST BASED ON AUTO OBS. NXT FCST BY 210100Z

CYMM 201838Z 2019/2107 27005KT P6SM couverture nuageuse fragmentée à 030 couverture nuageuse soudée à 060 temporairement 2019/2107 4SM faible SN couverture nuageuse fragmentée à 015 couverture nuageuse soudée à 030 remarques trombe ST BASED ON AUTO OBS. NXT trombe ST BY 210100Z

Aéroport à proximité de Fort McMurray

Météo générale à 5 jours à Fort McMurray (12.7 km)CYVT Aéroport Buffalo Narrows (195 km)CYLB Aéroport Lac La Bitche (215 km)CYPY Aéroport Fort Chipewyan (235 km)CYWM Aéroport Athabasca (246 km)CYOD Aéroport Cold Lake (257 km)CYBF Aéroport Bonnyville (263 km)

Vue aérienne de l'aéroport Fort McMurray

NOTAM de l'aéroport Fort McMurray

Les NOTAM sont fournis sans aucune garantie de leur actualité. Le pilote est le seul responsable de la vérification de sa validité avant de l'utiliser opérationnellement pour préparer un vol ou l'utiliser lors de sa navigation.

Pas de NOTAM

Sources des données